Time;durP1;ratioP1;P1;durP2;ratioP2;P2;SDS_P1;SDS_P2;PMS_P1;PMS_P2;Temp;Humidity;BMP_temperature;BMP_pressure;BME280_temperature;BME280_humidity;BME280_pressure;Samples;Min_cycle;Max_cycle;Signal;HPM_P1;HPM_P2
2021/09/29 00:00:05;;;;;;;19.52;15.82;;;13.10;99.90;;;;;;6116288;23;20212;-83
2021/09/29 00:02:33;;;;;;;19.60;14.88;;;13.10;99.90;;;;;;6115263;23;20215;-84
2021/09/29 00:05:00;;;;;;;19.30;14.00;;;13.10;99.90;;;;;;6114070;23;20185;-85
2021/09/29 00:07:27;;;;;;;19.25;14.52;;;13.10;99.90;;;;;;6113392;23;20205;-83
2021/09/29 00:09:54;;;;;;;16.65;14.38;;;13.10;99.90;;;;;;6114694;23;20209;-83
2021/09/29 00:12:22;;;;;;;18.65;14.23;;;13.00;99.90;;;;;;6114221;23;20558;-83
2021/09/29 00:14:50;;;;;;;16.10;13.43;;;13.00;99.90;;;;;;6114522;23;20183;-83
2021/09/29 00:17:17;;;;;;;18.23;13.75;;;13.10;99.90;;;;;;6112849;23;20212;-82
2021/09/29 00:19:44;;;;;;;20.88;16.38;;;13.00;99.90;;;;;;6112870;23;20234;-82
2021/09/29 00:22:11;;;;;;;22.40;17.10;;;13.00;99.90;;;;;;6114352;23;20245;-83
2021/09/29 00:24:38;;;;;;;23.38;14.93;;;12.90;99.90;;;;;;6115597;23;20210;-84
2021/09/29 00:27:05;;;;;;;19.20;13.88;;;12.90;99.90;;;;;;6115277;23;20211;-84
2021/09/29 00:29:34;;;;;;;18.42;14.60;;;12.90;99.90;;;;;;6121019;23;20169;-84
2021/09/29 00:32:05;;;;;;;18.40;16.40;;;12.90;99.90;;;;;;6124421;23;20231;-84
2021/09/29 00:34:39;;;;;;;19.85;15.60;;;12.90;99.90;;;;;;6124528;23;20154;-83
2021/09/29 00:37:06;;;;;;;19.90;14.27;;;12.80;99.90;;;;;;6123985;23;20556;-84
2021/09/29 00:39:34;;;;;;;18.23;14.00;;;12.80;99.90;;;;;;6124287;23;20195;-84
2021/09/29 00:42:01;;;;;;;19.02;15.60;;;12.90;99.90;;;;;;6123240;23;20210;-83
2021/09/29 00:44:28;;;;;;;17.98;14.77;;;12.90;99.90;;;;;;6122953;23;20180;-84
2021/09/29 00:46:57;;;;;;;23.65;16.40;;;12.80;99.90;;;;;;6122698;23;20244;-84
2021/09/29 00:49:24;;;;;;;24.90;17.88;;;12.80;99.90;;;;;;6115688;23;20212;-84
2021/09/29 00:51:52;;;;;;;20.35;16.25;;;12.80;99.90;;;;;;6113208;23;20197;-83
2021/09/29 00:54:19;;;;;;;18.83;15.95;;;12.80;99.90;;;;;;6113491;23;20186;-83
2021/09/29 00:56:47;;;;;;;19.65;14.30;;;12.80;99.90;;;;;;6112108;23;20220;-83
2021/09/29 00:59:14;;;;;;;22.48;17.63;;;12.80;99.90;;;;;;6112381;23;20172;-83
2021/09/29 01:01:41;;;;;;;26.10;16.98;;;12.80;99.90;;;;;;6112906;23;20196;-83
2021/09/29 01:04:10;;;;;;;23.92;15.85;;;12.70;99.90;;;;;;6111748;23;20203;-82
2021/09/29 01:06:39;;;;;;;21.30;16.63;;;12.70;99.90;;;;;;6115511;23;20207;-83
2021/09/29 01:09:14;;;;;;;23.48;14.43;;;12.60;99.90;;;;;;6113568;23;20240;-83
2021/09/29 01:11:53;;;;;;;19.85;14.43;;;12.60;99.90;;;;;;6108888;23;20174;-82
2021/09/29 01:14:27;;;;;;;20.67;15.80;;;12.60;99.90;;;;;;6110989;23;20248;-83
2021/09/29 01:16:58;;;;;;;24.25;15.88;;;12.60;99.90;;;;;;6111796;23;20207;-83
2021/09/29 01:19:52;;;;;;;17.10;15.30;;;12.60;99.90;;;;;;6111867;23;20182;-84
2021/09/29 01:22:40;;;;;;;18.00;14.55;;;12.60;99.90;;;;;;6111968;23;20204;-83
2021/09/29 01:25:17;;;;;;;20.65;16.20;;;12.60;99.90;;;;;;6112018;23;20200;-84
2021/09/29 01:27:47;;;;;;;22.85;15.38;;;12.60;99.90;;;;;;6112496;23;20255;-82
2021/09/29 01:30:15;;;;;;;25.83;14.70;;;12.50;99.90;;;;;;6112464;23;20180;-82
2021/09/29 01:32:42;;;;;;;20.25;14.93;;;12.60;99.90;;;;;;6111611;23;20199;-82
2021/09/29 01:35:10;;;;;;;20.42;15.57;;;12.50;99.90;;;;;;6111714;23;20241;-82
2021/09/29 01:37:37;;;;;;;23.98;16.55;;;12.50;99.90;;;;;;6111198;23;20243;-83
2021/09/29 01:40:07;;;;;;;18.77;15.00;;;12.60;99.90;;;;;;6112383;23;20953;-83
2021/09/29 01:42:34;;;;;;;21.10;18.17;;;12.50;99.90;;;;;;6111789;23;20649;-82
2021/09/29 01:45:03;;;;;;;21.08;15.23;;;12.50;99.90;;;;;;6111750;23;20189;-84
2021/09/29 01:47:30;;;;;;;28.20;17.25;;;12.50;99.90;;;;;;6112565;23;20215;-82
2021/09/29 01:50:07;;;;;;;22.50;15.80;;;12.50;99.90;;;;;;6111661;23;20190;-83
2021/09/29 01:52:37;;;;;;;21.77;15.07;;;12.30;99.90;;;;;;6112378;23;20206;-82
2021/09/29 01:55:07;;;;;;;22.45;16.77;;;12.50;99.90;;;;;;6112950;23;20179;-84
2021/09/29 01:57:37;;;;;;;22.83;16.65;;;12.50;99.90;;;;;;6112287;23;20206;-82
2021/09/29 02:00:08;;;;;;;19.45;15.07;;;12.50;99.90;;;;;;6112525;23;20200;-83
2021/09/29 02:02:35;;;;;;;27.42;16.42;;;12.50;99.90;;;;;;6114216;23;20195;-83
2021/09/29 02:05:03;;;;;;;21.25;15.90;;;12.50;99.90;;;;;;6114248;23;20231;-84
2021/09/29 02:07:30;;;;;;;23.52;17.52;;;12.60;99.90;;;;;;6113044;23;20210;-83
2021/09/29 02:09:57;;;;;;;20.75;15.73;;;12.50;99.90;;;;;;6112967;23;20372;-82
2021/09/29 02:12:24;;;;;;;26.13;18.70;;;12.60;99.90;;;;;;6113874;23;20181;-82
2021/09/29 02:14:51;;;;;;;19.40;15.98;;;12.60;99.90;;;;;;6113913;23;20202;-83
2021/09/29 02:17:20;;;;;;;19.75;15.60;;;12.60;99.90;;;;;;6114009;23;20200;-83
2021/09/29 02:19:47;;;;;;;19.42;14.32;;;12.50;99.90;;;;;;6113901;23;20578;-83
2021/09/29 02:22:16;;;;;;;22.88;17.25;;;12.60;99.90;;;;;;6112571;23;20213;-84
2021/09/29 02:24:44;;;;;;;20.80;14.57;;;12.60;99.90;;;;;;6113755;23;20201;-84
2021/09/29 02:27:11;;;;;;;21.40;15.35;;;12.60;99.90;;;;;;6116445;23;20200;-83
2021/09/29 02:29:39;;;;;;;24.20;16.58;;;12.60;99.90;;;;;;6121418;23;20241;-82
2021/09/29 02:32:07;;;;;;;19.92;16.13;;;12.60;99.90;;;;;;6122539;23;20167;-83
2021/09/29 02:34:35;;;;;;;18.70;15.15;;;12.50;99.90;;;;;;6121700;23;20188;-83
2021/09/29 02:37:03;;;;;;;18.30;14.80;;;12.50;99.90;;;;;;6121260;23;20196;-83
2021/09/29 02:39:30;;;;;;;23.15;16.23;;;12.50;99.90;;;;;;6122275;23;20241;-82
2021/09/29 02:41:57;;;;;;;22.05;17.23;;;12.50;99.90;;;;;;6121384;23;20192;-83
2021/09/29 02:44:24;;;;;;;28.63;16.55;;;12.50;99.90;;;;;;6122369;23;20235;-83
2021/09/29 02:46:51;;;;;;;19.58;14.93;;;12.50;99.90;;;;;;6120361;23;20169;-84
2021/09/29 02:49:18;;;;;;;19.35;15.68;;;12.50;99.90;;;;;;6121898;23;20664;-84
2021/09/29 02:51:47;;;;;;;24.38;17.60;;;12.50;99.90;;;;;;6121592;23;20188;-85
2021/09/29 02:54:14;;;;;;;20.15;16.05;;;12.50;99.90;;;;;;6121350;23;20169;-83
2021/09/29 02:56:41;;;;;;;19.60;16.00;;;12.60;99.90;;;;;;6121412;23;20164;-83
2021/09/29 02:59:09;;;;;;;16.95;15.18;;;12.50;99.90;;;;;;6120372;23;20196;-84
2021/09/29 03:01:38;;;;;;;29.63;18.23;;;12.60;99.90;;;;;;6121470;23;20215;-83
2021/09/29 03:04:05;;;;;;;19.20;14.90;;;12.60;99.90;;;;;;6121403;23;20169;-83
2021/09/29 03:06:33;;;;;;;17.75;13.40;;;12.60;99.90;;;;;;6120434;23;20244;-84
2021/09/29 03:09:01;;;;;;;19.58;16.17;;;12.60;99.90;;;;;;6121015;23;20192;-83
2021/09/29 03:11:29;;;;;;;20.70;15.13;;;12.60;99.90;;;;;;6120450;23;20203;-83
2021/09/29 03:13:56;;;;;;;17.92;15.57;;;12.60;99.90;;;;;;6120905;23;20206;-83
2021/09/29 03:16:23;;;;;;;22.55;14.90;;;12.60;99.90;;;;;;6121028;23;20184;-84
2021/09/29 03:18:51;;;;;;;17.08;13.63;;;12.60;99.90;;;;;;6121270;23;20187;-84
2021/09/29 03:21:18;;;;;;;17.17;13.60;;;12.50;99.90;;;;;;6121720;23;20236;-83
2021/09/29 03:23:46;;;;;;;21.80;14.77;;;12.50;99.90;;;;;;6121735;23;20172;-84
2021/09/29 03:26:14;;;;;;;16.77;13.88;;;12.50;99.90;;;;;;6121737;23;20162;-83
2021/09/29 03:28:41;;;;;;;19.25;14.90;;;12.50;99.90;;;;;;6120333;23;20271;-82
2021/09/29 03:31:09;;;;;;;25.52;15.30;;;12.50;99.90;;;;;;6117762;23;20191;-83
2021/09/29 03:33:36;;;;;;;18.20;14.40;;;12.50;99.90;;;;;;6116995;23;20183;-82
2021/09/29 03:36:03;;;;;;;15.35;13.63;;;12.50;99.90;;;;;;6115203;23;20186;-83
2021/09/29 03:38:30;;;;;;;19.45;13.68;;;12.50;99.90;;;;;;6116581;23;20690;-82
2021/09/29 03:40:57;;;;;;;16.35;13.35;;;12.50;99.90;;;;;;6117828;23;20236;-83
2021/09/29 03:43:26;;;;;;;15.85;13.23;;;12.60;99.90;;;;;;6118032;23;20184;-83
2021/09/29 03:45:53;;;;;;;15.27;13.30;;;12.60;99.90;;;;;;6116637;23;20211;-83
2021/09/29 03:48:20;;;;;;;19.52;13.05;;;12.60;99.90;;;;;;6116650;23;20213;-84
2021/09/29 03:50:47;;;;;;;15.93;14.30;;;12.50;99.90;;;;;;6118460;23;20165;-85
2021/09/29 03:53:14;;;;;;;14.50;12.25;;;12.60;99.90;;;;;;6123877;23;20188;-85
2021/09/29 03:55:41;;;;;;;15.30;12.30;;;12.50;99.90;;;;;;6123869;23;20212;-85
2021/09/29 03:58:09;;;;;;;13.50;11.55;;;12.60;99.90;;;;;;6124406;23;20208;-85
2021/09/29 04:00:37;;;;;;;18.25;14.18;;;12.70;99.90;;;;;;6124700;23;20215;-85
2021/09/29 04:03:06;;;;;;;16.90;13.13;;;12.70;99.90;;;;;;6124424;23;20179;-83
2021/09/29 04:05:34;;;;;;;15.35;11.85;;;12.70;99.90;;;;;;6118731;23;20244;-83
2021/09/29 04:08:01;;;;;;;19.00;13.88;;;12.70;99.90;;;;;;6117532;23;20592;-84
2021/09/29 04:10:28;;;;;;;18.08;13.65;;;12.70;99.90;;;;;;6116117;23;20220;-83
2021/09/29 04:12:55;;;;;;;16.35;12.45;;;12.70;99.90;;;;;;6115902;23;20229;-84
2021/09/29 04:15:22;;;;;;;13.43;11.45;;;12.70;99.90;;;;;;6115875;23;20239;-83
2021/09/29 04:17:51;;;;;;;18.23;10.25;;;12.70;99.90;;;;;;6118257;23;20225;-85
2021/09/29 04:20:18;;;;;;;13.85;11.93;;;12.80;99.90;;;;;;6121735;23;20229;-84
2021/09/29 04:22:45;;;;;;;18.48;12.13;;;12.80;99.90;;;;;;6121706;23;20221;-83
2021/09/29 04:25:12;;;;;;;13.48;12.02;;;12.80;99.90;;;;;;6121495;23;20216;-83
2021/09/29 04:27:40;;;;;;;13.80;12.40;;;12.80;99.90;;;;;;6121475;23;20249;-83
2021/09/29 04:30:08;;;;;;;11.90;10.80;;;12.80;99.90;;;;;;6121614;23;20216;-84
2021/09/29 04:32:36;;;;;;;13.10;10.32;;;12.80;99.90;;;;;;6120665;23;20184;-84
2021/09/29 04:35:05;;;;;;;13.90;12.02;;;12.80;99.90;;;;;;6121346;23;20178;-82
2021/09/29 04:37:32;;;;;;;16.35;12.05;;;12.80;99.90;;;;;;6119804;23;20239;-83
2021/09/29 04:40:00;;;;;;;20.85;12.13;;;12.90;99.90;;;;;;6121208;23;20195;-82
2021/09/29 04:42:27;;;;;;;11.07;9.85;;;12.90;99.90;;;;;;6121348;23;20186;-83
2021/09/29 04:44:54;;;;;;;16.08;11.75;;;12.90;99.90;;;;;;6118421;23;20194;-83
2021/09/29 04:47:21;;;;;;;13.07;11.35;;;12.90;99.90;;;;;;6113357;23;20205;-83
2021/09/29 04:49:48;;;;;;;12.35;9.40;;;12.90;99.90;;;;;;6115344;23;20199;-84
2021/09/29 04:52:17;;;;;;;11.35;9.70;;;12.90;99.90;;;;;;6120116;23;20169;-83
2021/09/29 04:54:44;;;;;;;11.23;9.98;;;12.90;99.90;;;;;;6118355;23;20191;-83
2021/09/29 04:57:11;;;;;;;16.52;11.82;;;13.00;99.90;;;;;;6119722;23;20193;-83
2021/09/29 04:59:38;;;;;;;14.13;10.10;;;13.00;99.90;;;;;;6123674;23;20180;-84
2021/09/29 05:02:06;;;;;;;14.52;10.27;;;13.00;99.90;;;;;;6123885;23;20168;-84
2021/09/29 05:04:33;;;;;;;14.30;10.60;;;12.80;99.90;;;;;;6123481;23;20161;-85
2021/09/29 05:07:00;;;;;;;12.27;10.93;;;13.00;99.90;;;;;;6123579;23;20193;-84
2021/09/29 05:09:29;;;;;;;13.88;10.40;;;13.00;99.90;;;;;;6123012;23;20239;-84
2021/09/29 05:12:03;;;;;;;11.10;9.70;;;12.90;99.90;;;;;;6122993;23;20220;-86
2021/09/29 05:14:30;;;;;;;13.35;9.60;;;12.90;99.90;;;;;;6122988;23;20159;-84
2021/09/29 05:16:57;;;;;;;13.13;11.13;;;12.90;99.90;;;;;;6115291;23;20195;-83
2021/09/29 05:19:24;;;;;;;15.27;10.20;;;12.90;99.90;;;;;;6114250;23;20190;-83
2021/09/29 05:21:52;;;;;;;19.05;11.15;;;12.90;99.90;;;;;;6116546;23;20187;-83
2021/09/29 05:24:19;;;;;;;14.88;11.43;;;12.90;99.90;;;;;;6118212;23;20190;-82
2021/09/29 05:26:48;;;;;;;12.75;10.48;;;13.00;99.90;;;;;;6113876;23;20203;-83
2021/09/29 05:29:19;;;;;;;10.63;9.52;;;13.10;99.90;;;;;;6110962;23;20211;-83
2021/09/29 05:31:46;;;;;;;13.85;11.05;;;13.10;99.90;;;;;;6110026;23;20178;-83
2021/09/29 05:34:13;;;;;;;15.82;11.60;;;13.10;99.90;;;;;;6109187;23;20192;-83
2021/09/29 05:36:41;;;;;;;15.20;10.60;;;13.10;99.90;;;;;;6110971;23;20648;-85
2021/09/29 05:39:09;;;;;;;16.27;11.00;;;13.00;99.90;;;;;;6113218;23;20374;-86
2021/09/29 05:41:36;;;;;;;11.57;9.32;;;13.00;99.90;;;;;;6109947;23;20174;-86
2021/09/29 05:44:05;;;;;;;11.25;10.07;;;12.90;99.90;;;;;;6110475;23;20175;-83
2021/09/29 05:46:38;;;;;;;17.23;14.05;;;12.90;99.90;;;;;;6112155;23;20184;-84
2021/09/29 05:49:05;;;;;;;18.30;11.80;;;12.90;99.90;;;;;;6109985;23;20168;-83
2021/09/29 05:51:32;;;;;;;12.55;10.60;;;12.90;99.90;;;;;;6113780;23;20225;-83
2021/09/29 05:53:59;;;;;;;14.20;9.93;;;13.00;99.90;;;;;;6118948;23;20189;-84
2021/09/29 05:56:27;;;;;;;14.05;10.90;;;13.00;99.90;;;;;;6117196;23;20186;-84
2021/09/29 05:58:54;;;;;;;12.23;10.15;;;13.00;99.90;;;;;;6115952;23;20774;-83
2021/09/29 06:01:22;;;;;;;15.20;12.88;;;13.10;99.90;;;;;;6112539;23;20752;-82
2021/09/29 06:03:49;;;;;;;20.73;17.75;;;13.10;99.90;;;;;;6112940;23;20190;-83
2021/09/29 06:06:16;;;;;;;14.05;9.98;;;13.10;99.90;;;;;;6113537;23;20644;-82
2021/09/29 06:08:44;;;;;;;14.25;10.23;;;13.20;99.90;;;;;;6108364;23;20205;-85
2021/09/29 06:11:11;;;;;;;17.77;14.00;;;13.20;99.90;;;;;;6111085;23;20177;-84
2021/09/29 06:13:38;;;;;;;11.88;9.35;;;13.20;99.90;;;;;;6107580;23;20178;-84
2021/09/29 06:16:08;;;;;;;13.48;9.20;;;13.30;99.90;;;;;;6105554;23;20178;-84
2021/09/29 06:18:37;;;;;;;18.95;14.82;;;13.20;99.90;;;;;;6107281;23;20205;-84
2021/09/29 06:21:06;;;;;;;11.63;8.35;;;13.20;99.90;;;;;;6106231;23;20648;-86
2021/09/29 06:23:34;;;;;;;12.40;9.23;;;13.20;99.90;;;;;;6116296;23;20177;-86
2021/09/29 06:26:07;;;;;;;15.52;9.75;;;13.20;99.90;;;;;;6122279;23;20194;-86
2021/09/29 06:28:37;;;;;;;9.23;8.32;;;13.20;99.90;;;;;;6118551;23;20261;-82
2021/09/29 06:31:05;;;;;;;11.75;9.60;;;13.20;99.90;;;;;;6112891;23;20185;-82
2021/09/29 06:33:33;;;;;;;13.57;10.15;;;13.20;99.90;;;;;;6110404;23;20189;-82
2021/09/29 06:36:03;;;;;;;11.82;9.55;;;13.10;99.90;;;;;;6110929;23;20177;-81
2021/09/29 06:38:31;;;;;;;13.18;9.30;;;13.20;99.90;;;;;;6112822;23;20248;-83
2021/09/29 06:40:58;;;;;;;11.20;9.90;;;13.20;99.90;;;;;;6112838;23;20260;-80
2021/09/29 06:43:25;;;;;;;12.95;9.30;;;13.20;99.90;;;;;;6109847;23;20185;-81
2021/09/29 06:45:53;;;;;;;9.98;8.85;;;13.20;99.90;;;;;;6105346;23;20178;-81
2021/09/29 06:48:20;;;;;;;13.80;8.98;;;13.10;99.90;;;;;;6107320;23;20198;-81
2021/09/29 06:50:47;;;;;;;11.40;8.15;;;13.30;99.90;;;;;;6108067;23;20193;-84
2021/09/29 06:53:21;;;;;;;19.73;9.65;;;13.30;99.90;;;;;;6112172;23;20256;-85
2021/09/29 06:55:49;;;;;;;10.13;8.52;;;13.30;99.90;;;;;;6121709;23;20257;-87
2021/09/29 06:58:16;;;;;;;13.48;9.88;;;13.30;99.90;;;;;;6123404;23;20245;-85
2021/09/29 07:00:44;;;;;;;16.58;9.43;;;13.30;99.90;;;;;;6123958;23;20197;-84
2021/09/29 07:03:13;;;;;;;11.38;7.50;;;13.30;99.90;;;;;;6123683;23;20200;-84
2021/09/29 07:05:40;;;;;;;10.23;9.07;;;13.50;99.90;;;;;;6124122;23;20170;-85
2021/09/29 07:08:07;;;;;;;10.15;7.63;;;13.60;99.90;;;;;;6124228;23;20196;-85
2021/09/29 07:10:36;;;;;;;10.93;8.20;;;13.70;99.90;;;;;;6123196;23;20184;-85
2021/09/29 07:13:03;;;;;;;12.55;7.90;;;13.80;99.90;;;;;;6120267;23;20230;-85
2021/09/29 07:15:30;;;;;;;11.23;8.25;;;13.90;99.90;;;;;;6118350;23;20169;-83
2021/09/29 07:17:59;;;;;;;13.07;8.90;;;14.00;99.90;;;;;;6115756;23;20202;-84
2021/09/29 07:20:28;;;;;;;9.75;8.77;;;14.10;99.90;;;;;;6109951;23;20209;-83
2021/09/29 07:22:57;;;;;;;9.95;7.80;;;14.20;99.90;;;;;;6110917;23;20182;-84
2021/09/29 07:25:27;;;;;;;8.77;7.60;;;14.20;99.90;;;;;;6110299;23;20170;-84
2021/09/29 07:27:55;;;;;;;8.23;7.05;;;14.30;99.90;;;;;;6111639;23;20297;-84
2021/09/29 07:30:23;;;;;;;17.88;8.70;;;14.40;99.90;;;;;;6111255;23;20198;-84
2021/09/29 07:32:51;;;;;;;14.77;8.48;;;14.40;99.90;;;;;;6110248;23;20222;-82
2021/09/29 07:35:19;;;;;;;18.15;10.27;;;14.40;99.90;;;;;;6110591;23;20213;-83
2021/09/29 07:37:47;;;;;;;11.10;7.93;;;14.40;99.90;;;;;;6109924;23;20186;-84
2021/09/29 07:40:15;;;;;;;9.45;8.07;;;14.50;99.90;;;;;;6111509;23;20210;-83
2021/09/29 07:42:44;;;;;;;9.35;7.70;;;14.60;99.90;;;;;;6112940;23;20182;-86
2021/09/29 07:45:13;;;;;;;16.88;8.60;;;14.60;99.90;;;;;;6113443;23;20166;-85
2021/09/29 07:47:40;;;;;;;10.90;7.45;;;14.40;99.90;;;;;;6110641;23;20230;-84
2021/09/29 07:50:12;;;;;;;12.05;8.77;;;14.40;99.90;;;;;;6108837;23;20199;-84
2021/09/29 07:52:39;;;;;;;9.75;8.73;;;14.20;99.90;;;;;;6110667;23;20243;-84
2021/09/29 07:55:08;;;;;;;11.18;8.20;;;14.50;99.90;;;;;;6109909;23;20276;-83
2021/09/29 07:57:35;;;;;;;8.60;7.90;;;14.50;99.90;;;;;;6109534;23;20540;-83
2021/09/29 08:00:02;;;;;;;11.23;8.07;;;14.50;99.90;;;;;;6109474;23;20174;-84
2021/09/29 08:02:31;;;;;;;8.95;8.05;;;14.80;99.90;;;;;;6109284;23;20170;-84
2021/09/29 08:05:01;;;;;;;9.95;7.50;;;15.10;99.90;;;;;;6106830;23;20572;-83
2021/09/29 08:07:29;;;;;;;7.47;6.78;;;15.20;99.90;;;;;;6108911;23;20210;-81
2021/09/29 08:09:56;;;;;;;10.85;8.65;;;15.30;99.90;;;;;;6111408;23;20739;-83
2021/09/29 08:12:24;;;;;;;11.13;7.50;;;15.50;99.90;;;;;;6105848;23;20214;-83
2021/09/29 08:14:52;;;;;;;7.22;6.53;;;15.70;99.90;;;;;;6104240;23;20187;-81
2021/09/29 08:17:22;;;;;;;7.03;6.23;;;16.50;99.90;;;;;;6104901;23;20568;-82
2021/09/29 08:19:50;;;;;;;8.10;6.57;;;17.40;99.90;;;;;;6105965;23;20417;-82
2021/09/29 08:22:19;;;;;;;14.20;6.97;;;17.80;99.90;;;;;;6107032;23;20746;-82
2021/09/29 08:24:54;;;;;;;8.47;7.67;;;17.10;99.90;;;;;;6109424;23;20414;-83
2021/09/29 08:27:28;;;;;;;9.73;7.70;;;16.70;99.90;;;;;;6108854;23;20456;-85
2021/09/29 08:30:08;;;;;;;7.97;6.75;;;16.60;99.90;;;;;;6112774;23;20441;-85
2021/09/29 08:32:40;;;;;;;11.85;6.10;;;16.20;99.90;;;;;;6112856;23;20157;-84
2021/09/29 08:35:14;;;;;;;14.70;7.73;;;16.40;99.90;;;;;;6113415;23;20173;-85
2021/09/29 08:37:45;;;;;;;8.00;6.53;;;17.00;99.90;;;;;;6113530;23;20430;-85
2021/09/29 08:40:22;;;;;;;7.80;5.73;;;18.30;99.90;;;;;;6119408;23;20420;-86
2021/09/29 08:43:06;;;;;;;8.40;6.83;;;18.80;99.90;;;;;;6115540;23;20398;-84
2021/09/29 08:45:38;;;;;;;10.67;6.77;;;18.30;99.90;;;;;;6113235;23;20394;-85
2021/09/29 08:48:11;;;;;;;14.30;6.63;;;17.70;99.90;;;;;;6111874;23;20505;-85
2021/09/29 08:53:43;;;;;;;6.53;5.87;;;17.30;99.90;;;;;;6061091;23;20423;-86
2021/09/29 08:56:22;;;;;;;9.23;6.20;;;17.40;99.90;;;;;;6111198;23;20421;-84
2021/09/29 09:15:48;;;;;;;7.27;5.07;;;17.70;99.90;;;;;;6145268;23;20385;-86
2021/09/29 09:18:16;;;;;;;8.33;5.53;;;17.90;99.90;;;;;;6145855;23;20423;-85
2021/09/29 09:20:47;;;;;;;7.10;5.50;;;18.40;99.90;;;;;;6142837;23;20412;-84
2021/09/29 09:23:15;;;;;;;8.33;5.53;;;18.90;99.90;;;;;;6148908;23;20406;-85
2021/09/29 09:25:44;;;;;;;7.43;5.53;;;19.90;99.90;;;;;;6151993;23;20421;-82
2021/09/29 09:28:24;;;;;;;5.80;5.20;;;20.60;99.90;;;;;;6151222;23;20427;-83
2021/09/29 09:30:51;;;;;;;10.23;5.90;;;21.30;99.90;;;;;;6149952;23;20517;-83
2021/09/29 09:33:25;;;;;;;6.97;5.17;;;21.70;99.70;;;;;;6151275;23;20408;-83
2021/09/29 09:35:53;;;;;;;7.63;5.23;;;21.80;99.30;;;;;;6151150;23;20405;-83
2021/09/29 09:38:25;;;;;;;5.33;4.80;;;21.80;99.00;;;;;;6150220;23;20441;-83
2021/09/29 09:40:57;;;;;;;7.80;6.50;;;21.60;99.40;;;;;;6149910;23;20421;-84
2021/09/29 09:43:26;;;;;;;7.20;5.70;;;21.10;99.70;;;;;;6148431;23;20422;-83
2021/09/29 09:45:53;;;;;;;6.70;6.03;;;20.50;99.90;;;;;;6144992;23;20440;-84
2021/09/29 09:48:23;;;;;;;10.00;5.10;;;20.10;99.90;;;;;;6143585;23;20523;-83
2021/09/29 09:50:53;;;;;;;6.80;5.50;;;20.00;99.90;;;;;;6142761;23;20497;-84
2021/09/29 09:53:22;;;;;;;5.67;5.00;;;19.90;99.90;;;;;;6142725;23;20382;-83
2021/09/29 09:55:50;;;;;;;4.80;4.40;;;20.00;99.90;;;;;;6142280;23;20471;-83
2021/09/29 09:58:18;;;;;;;6.20;4.97;;;20.50;99.90;;;;;;6143089;23;20428;-83
2021/09/29 10:00:45;;;;;;;6.93;4.17;;;20.80;99.90;;;;;;6144719;23;20420;-84
2021/09/29 10:03:14;;;;;;;5.50;4.20;;;21.90;98.60;;;;;;6143642;23;20410;-84
2021/09/29 10:05:43;;;;;;;5.10;3.90;;;23.30;97.50;;;;;;6136143;23;20421;-84
2021/09/29 10:08:15;;;;;;;5.33;3.73;;;24.70;93.90;;;;;;6114303;23;20430;-84
2021/09/29 10:10:56;;;;;;;4.83;3.80;;;24.70;91.70;;;;;;6113487;23;20433;-84
2021/09/29 10:13:54;;;;;;;5.33;3.43;;;24.40;90.40;;;;;;6113515;23;20390;-84
2021/09/29 10:27:41;;;;;;;3.67;3.23;;;24.10;90.70;;;;;;6117920;23;20414;-83
2021/09/29 10:30:11;;;;;;;6.00;3.10;;;23.70;91.10;;;;;;6117562;23;20456;-83
2021/09/29 10:32:43;;;;;;;6.03;4.13;;;23.10;92.10;;;;;;6118770;23;20486;-83
2021/09/29 10:35:27;;;;;;;6.30;4.17;;;22.30;92.90;;;;;;6118452;23;20465;-83
2021/09/29 10:40:15;;;;;;;8.60;3.33;;;21.40;94.20;;;;;;6118517;23;20421;-83
2021/09/29 10:43:52;;;;;;;5.33;2.73;;;20.00;97.50;;;;;;6111255;23;20471;-83
2021/09/29 10:46:34;;;;;;;3.67;3.00;;;19.60;99.30;;;;;;6117743;23;20415;-83
2021/09/29 11:09:19;;;;;;;5.10;3.57;;;18.90;99.90;;;;;;6108916;23;20854;-82
2021/09/29 11:31:14;;;;;;;8.80;3.40;;;18.40;99.90;;;;;;6118739;23;20444;-81
2021/09/29 11:33:46;;;;;;;9.77;4.20;;;18.40;99.90;;;;;;6119377;23;20419;-83
2021/09/29 11:36:29;;;;;;;7.93;3.60;;;18.40;99.90;;;;;;6118130;23;20427;-83
2021/09/29 12:10:06;;;;;;;3.10;2.70;;;17.50;99.90;;;;;;6118150;23;20450;-85
2021/09/29 12:12:37;;;;;;;2.90;2.17;;;17.60;99.90;;;;;;6118179;23;20406;-83
2021/09/29 12:15:06;;;;;;;4.87;2.30;;;17.80;99.90;;;;;;6116563;23;20394;-84
2021/09/29 12:17:35;;;;;;;4.87;2.37;;;17.80;99.90;;;;;;6118300;23;20430;-83
2021/09/29 12:20:12;;;;;;;4.53;2.60;;;17.80;99.90;;;;;;6117364;23;20411;-83
2021/09/29 12:22:45;;;;;;;4.10;2.70;;;17.90;99.90;;;;;;6117334;23;20402;-84
2021/09/29 12:25:15;;;;;;;6.90;3.57;;;17.90;99.90;;;;;;6116552;23;20432;-83
2021/09/29 12:27:49;;;;;;;11.20;3.57;;;17.80;99.90;;;;;;6116869;23;20436;-83
2021/09/29 12:30:21;;;;;;;4.47;2.70;;;17.70;99.90;;;;;;6116717;23;20463;-84
2021/09/29 12:35:47;;;;;;;6.10;3.10;;;17.40;99.90;;;;;;6109673;23;20196;-83
2021/09/29 12:38:16;;;;;;;6.00;3.00;;;17.20;99.90;;;;;;6113953;23;20440;-83
2021/09/29 12:40:45;;;;;;;15.43;4.20;;;17.00;99.90;;;;;;6115421;23;20170;-84
2021/09/29 12:43:14;;;;;;;7.25;3.05;;;16.80;99.90;;;;;;6115823;23;20418;-83
2021/09/29 12:45:44;;;;;;;7.15;3.03;;;16.70;99.90;;;;;;6117582;23;20191;-84
2021/09/29 12:48:13;;;;;;;14.10;3.75;;;16.60;99.90;;;;;;6120130;23;20195;-83
2021/09/29 12:50:47;;;;;;;3.97;2.60;;;16.40;99.90;;;;;;6120312;23;20237;-83
2021/09/29 12:53:26;;;;;;;3.33;2.95;;;16.10;99.90;;;;;;6120903;23;20173;-84
2021/09/29 12:55:56;;;;;;;8.57;3.53;;;15.90;99.90;;;;;;6121053;23;20187;-82
2021/09/29 12:58:24;;;;;;;4.38;2.80;;;15.90;99.90;;;;;;6121834;23;20214;-85
2021/09/29 13:00:51;;;;;;;4.88;3.08;;;15.80;99.90;;;;;;6121372;23;20224;-83
2021/09/29 13:03:18;;;;;;;6.70;3.00;;;15.80;99.90;;;;;;6120894;23;20203;-83
2021/09/29 13:05:47;;;;;;;4.55;3.55;;;15.90;99.90;;;;;;6121511;23;20237;-83
2021/09/29 13:08:15;;;;;;;10.10;4.63;;;15.80;99.90;;;;;;6122123;23;20186;-83
2021/09/29 13:10:42;;;;;;;4.72;2.60;;;15.90;99.90;;;;;;6121427;23;20226;-83
2021/09/29 13:13:11;;;;;;;4.93;2.90;;;16.10;99.90;;;;;;6122270;23;20176;-84
2021/09/29 13:15:41;;;;;;;5.07;3.70;;;16.00;99.90;;;;;;6121486;23;20167;-83
2021/09/29 13:18:13;;;;;;;3.53;2.45;;;16.00;99.90;;;;;;6121851;23;20201;-82
2021/09/29 13:20:44;;;;;;;5.35;3.47;;;16.10;99.90;;;;;;6122022;23;20176;-82
2021/09/29 13:23:15;;;;;;;3.70;3.10;;;16.10;99.90;;;;;;6122174;23;20176;-83
2021/09/29 13:26:05;;;;;;;9.80;3.90;;;16.00;99.90;;;;;;6120596;23;20184;-83
2021/09/29 13:36:48;;;;;;;4.40;2.97;;;14.50;99.90;;;;;;6119640;23;20206;-82
2021/09/29 13:39:16;;;;;;;2.55;2.33;;;14.20;99.90;;;;;;6118064;23;20189;-82
2021/09/29 13:41:47;;;;;;;5.05;2.95;;;14.00;99.90;;;;;;6119623;23;20182;-83
2021/09/29 13:44:14;;;;;;;3.00;2.75;;;13.90;99.90;;;;;;6115629;23;20170;-82
2021/09/29 13:46:42;;;;;;;5.32;3.97;;;13.80;99.90;;;;;;6117686;23;20184;-83
2021/09/29 13:49:10;;;;;;;5.35;3.75;;;13.90;99.90;;;;;;6118288;23;20182;-83
2021/09/29 13:51:38;;;;;;;3.22;2.90;;;13.90;99.90;;;;;;6119984;23;20213;-83
2021/09/29 13:54:09;;;;;;;2.55;2.38;;;13.90;99.90;;;;;;6119326;23;20178;-84
2021/09/29 13:56:45;;;;;;;3.90;3.40;;;13.90;99.90;;;;;;6122659;23;20151;-84
2021/09/29 13:59:28;;;;;;;3.63;2.58;;;13.80;99.90;;;;;;6124489;23;20170;-82
2021/09/29 14:29:47;;;;;;;3.70;3.40;;;14.00;99.90;;;;;;6117998;23;20501;-83
2021/09/29 14:32:19;;;;;;;4.40;3.65;;;13.90;99.90;;;;;;6118625;23;20185;-83
2021/09/29 14:34:46;;;;;;;4.03;3.63;;;13.90;99.90;;;;;;6117073;23;20257;-83
2021/09/29 14:37:15;;;;;;;4.55;3.35;;;13.80;99.90;;;;;;6117368;23;20237;-82
2021/09/29 14:39:43;;;;;;;3.45;3.15;;;13.70;99.90;;;;;;6117893;23;20213;-82
2021/09/29 14:42:10;;;;;;;2.75;2.55;;;13.60;99.90;;;;;;6118580;23;20186;-82
2021/09/29 14:44:38;;;;;;;5.22;2.20;;;13.50;99.90;;;;;;6115525;23;20205;-83
2021/09/29 14:47:10;;;;;;;2.22;2.03;;;13.40;99.90;;;;;;6113384;23;20206;-82
2021/09/29 14:49:40;;;;;;;5.32;2.25;;;13.30;99.90;;;;;;6114543;23;20245;-83
2021/09/29 14:52:07;;;;;;;2.20;2.00;;;13.20;99.90;;;;;;6111649;23;20253;-83
2021/09/29 14:54:35;;;;;;;1.88;1.48;;;13.10;99.90;;;;;;6112387;23;20196;-83
2021/09/29 14:57:03;;;;;;;3.55;1.58;;;13.10;99.90;;;;;;6111955;23;20285;-83
2021/09/29 14:59:30;;;;;;;2.95;1.50;;;13.10;99.90;;;;;;6111475;23;20514;-83
2021/09/29 15:01:57;;;;;;;1.92;1.30;;;13.10;99.90;;;;;;6113195;23;20181;-82
2021/09/29 15:04:24;;;;;;;3.47;1.48;;;13.00;99.90;;;;;;6112505;23;20224;-83
2021/09/29 15:07:26;;;;;;;2.55;2.10;;;13.00;99.90;;;;;;6111520;23;20196;-84
2021/09/29 15:10:42;;;;;;;3.90;1.63;;;13.00;99.90;;;;;;6111034;23;20185;-83